sensor_id;sensor_type;location;lat;lon;timestamp;P1;durP1;ratioP1;P2;durP2;ratioP2
62401;SDS011;48440;51.224;22.506;2022-07-29T00:01:20;12.35;;;6.10;;
62401;SDS011;48440;51.224;22.506;2022-07-29T00:03:46;15.38;;;5.90;;
62401;SDS011;48440;51.224;22.506;2022-07-29T00:06:11;16.88;;;6.35;;
62401;SDS011;48440;51.224;22.506;2022-07-29T00:08:38;12.77;;;6.45;;
62401;SDS011;48440;51.224;22.506;2022-07-29T00:11:04;20.30;;;6.40;;
62401;SDS011;48440;51.224;22.506;2022-07-29T00:13:30;16.50;;;6.47;;
62401;SDS011;48440;51.224;22.506;2022-07-29T00:15:55;12.20;;;6.65;;
62401;SDS011;48440;51.224;22.506;2022-07-29T00:18:21;14.13;;;6.10;;
62401;SDS011;48440;51.224;22.506;2022-07-29T00:20:47;15.68;;;6.35;;
62401;SDS011;48440;51.224;22.506;2022-07-29T00:23:13;19.40;;;6.88;;
62401;SDS011;48440;51.224;22.506;2022-07-29T00:25:38;18.88;;;6.68;;
62401;SDS011;48440;51.224;22.506;2022-07-29T00:28:04;18.63;;;6.93;;
62401;SDS011;48440;51.224;22.506;2022-07-29T00:30:29;18.42;;;7.80;;
62401;SDS011;48440;51.224;22.506;2022-07-29T00:32:55;18.17;;;6.50;;
62401;SDS011;48440;51.224;22.506;2022-07-29T00:35:21;18.33;;;6.85;;
62401;SDS011;48440;51.224;22.506;2022-07-29T00:38:05;15.40;;;7.65;;
62401;SDS011;48440;51.224;22.506;2022-07-29T00:40:30;15.27;;;7.03;;
62401;SDS011;48440;51.224;22.506;2022-07-29T00:42:56;16.02;;;6.38;;
62401;SDS011;48440;51.224;22.506;2022-07-29T00:45:22;17.85;;;6.55;;
62401;SDS011;48440;51.224;22.506;2022-07-29T00:47:47;14.90;;;6.80;;
62401;SDS011;48440;51.224;22.506;2022-07-29T00:50:13;17.90;;;7.43;;
62401;SDS011;48440;51.224;22.506;2022-07-29T00:52:40;13.15;;;6.47;;
62401;SDS011;48440;51.224;22.506;2022-07-29T00:55:11;17.05;;;7.38;;
62401;SDS011;48440;51.224;22.506;2022-07-29T00:57:38;17.00;;;7.00;;
62401;SDS011;48440;51.224;22.506;2022-07-29T01:00:07;13.32;;;7.28;;
62401;SDS011;48440;51.224;22.506;2022-07-29T01:02:38;17.40;;;7.30;;
62401;SDS011;48440;51.224;22.506;2022-07-29T01:05:04;19.25;;;7.22;;
62401;SDS011;48440;51.224;22.506;2022-07-29T01:07:31;14.30;;;7.60;;
62401;SDS011;48440;51.224;22.506;2022-07-29T01:10:00;16.52;;;7.03;;
62401;SDS011;48440;51.224;22.506;2022-07-29T01:12:28;19.02;;;7.13;;
62401;SDS011;48440;51.224;22.506;2022-07-29T01:14:58;14.07;;;7.53;;
62401;SDS011;48440;51.224;22.506;2022-07-29T01:17:31;14.93;;;7.30;;
62401;SDS011;48440;51.224;22.506;2022-07-29T01:25:32;17.02;;;7.28;;
62401;SDS011;48440;51.224;22.506;2022-07-29T01:28:17;17.75;;;7.80;;
62401;SDS011;48440;51.224;22.506;2022-07-29T01:31:01;13.48;;;7.85;;
62401;SDS011;48440;51.224;22.506;2022-07-29T01:33:30;17.13;;;7.80;;
62401;SDS011;48440;51.224;22.506;2022-07-29T01:36:17;17.23;;;7.35;;
62401;SDS011;48440;51.224;22.506;2022-07-29T01:38:50;17.02;;;8.80;;
62401;SDS011;48440;51.224;22.506;2022-07-29T01:41:23;19.10;;;8.13;;
62401;SDS011;48440;51.224;22.506;2022-07-29T01:43:55;15.13;;;7.75;;
62401;SDS011;48440;51.224;22.506;2022-07-29T01:46:28;18.77;;;7.63;;
62401;SDS011;48440;51.224;22.506;2022-07-29T01:49:10;21.70;;;8.45;;
62401;SDS011;48440;51.224;22.506;2022-07-29T01:54:16;14.27;;;7.68;;
62401;SDS011;48440;51.224;22.506;2022-07-29T01:56:43;19.80;;;8.90;;
62401;SDS011;48440;51.224;22.506;2022-07-29T01:59:12;16.85;;;8.20;;
62401;SDS011;48440;51.224;22.506;2022-07-29T02:01:39;14.73;;;7.47;;
62401;SDS011;48440;51.224;22.506;2022-07-29T02:04:08;19.45;;;8.18;;
62401;SDS011;48440;51.224;22.506;2022-07-29T02:06:37;16.58;;;7.68;;
62401;SDS011;48440;51.224;22.506;2022-07-29T02:09:05;15.35;;;7.82;;
62401;SDS011;48440;51.224;22.506;2022-07-29T02:11:33;12.88;;;7.75;;
62401;SDS011;48440;51.224;22.506;2022-07-29T02:14:00;14.73;;;7.85;;
62401;SDS011;48440;51.224;22.506;2022-07-29T02:16:29;21.30;;;8.43;;
62401;SDS011;48440;51.224;22.506;2022-07-29T02:18:57;12.15;;;7.82;;
62401;SDS011;48440;51.224;22.506;2022-07-29T02:21:26;23.67;;;8.60;;
62401;SDS011;48440;51.224;22.506;2022-07-29T02:23:54;13.63;;;7.57;;
62401;SDS011;48440;51.224;22.506;2022-07-29T02:26:24;16.13;;;7.90;;
62401;SDS011;48440;51.224;22.506;2022-07-29T02:28:52;18.65;;;8.55;;
62401;SDS011;48440;51.224;22.506;2022-07-29T02:31:21;18.38;;;8.52;;
62401;SDS011;48440;51.224;22.506;2022-07-29T02:33:48;20.48;;;8.82;;
62401;SDS011;48440;51.224;22.506;2022-07-29T02:36:14;16.65;;;7.88;;
62401;SDS011;48440;51.224;22.506;2022-07-29T02:38:42;14.80;;;8.18;;
62401;SDS011;48440;51.224;22.506;2022-07-29T02:41:17;21.52;;;8.52;;
62401;SDS011;48440;51.224;22.506;2022-07-29T02:43:53;20.90;;;8.02;;
62401;SDS011;48440;51.224;22.506;2022-07-29T02:46:24;16.38;;;8.70;;
62401;SDS011;48440;51.224;22.506;2022-07-29T02:49:02;15.80;;;8.45;;
62401;SDS011;48440;51.224;22.506;2022-07-29T02:51:41;12.73;;;8.45;;
62401;SDS011;48440;51.224;22.506;2022-07-29T02:54:11;16.15;;;8.63;;
62401;SDS011;48440;51.224;22.506;2022-07-29T02:56:45;18.17;;;9.25;;
62401;SDS011;48440;51.224;22.506;2022-07-29T02:59:13;19.08;;;9.13;;
62401;SDS011;48440;51.224;22.506;2022-07-29T03:01:43;19.70;;;8.43;;
62401;SDS011;48440;51.224;22.506;2022-07-29T03:04:11;19.75;;;8.88;;
62401;SDS011;48440;51.224;22.506;2022-07-29T03:06:39;14.57;;;7.50;;
62401;SDS011;48440;51.224;22.506;2022-07-29T03:09:06;15.70;;;8.00;;
62401;SDS011;48440;51.224;22.506;2022-07-29T03:11:32;16.15;;;8.23;;
62401;SDS011;48440;51.224;22.506;2022-07-29T03:14:00;17.73;;;8.73;;
62401;SDS011;48440;51.224;22.506;2022-07-29T03:16:26;13.85;;;8.35;;
62401;SDS011;48440;51.224;22.506;2022-07-29T03:18:53;19.48;;;8.70;;
62401;SDS011;48440;51.224;22.506;2022-07-29T03:21:19;22.88;;;9.63;;
62401;SDS011;48440;51.224;22.506;2022-07-29T03:23:45;17.10;;;8.20;;
62401;SDS011;48440;51.224;22.506;2022-07-29T03:26:11;18.08;;;8.20;;
62401;SDS011;48440;51.224;22.506;2022-07-29T03:28:37;19.27;;;8.80;;
62401;SDS011;48440;51.224;22.506;2022-07-29T03:31:03;14.50;;;8.48;;
62401;SDS011;48440;51.224;22.506;2022-07-29T03:33:28;23.55;;;8.63;;
62401;SDS011;48440;51.224;22.506;2022-07-29T03:35:55;18.27;;;8.23;;
62401;SDS011;48440;51.224;22.506;2022-07-29T03:38:23;14.25;;;8.60;;
62401;SDS011;48440;51.224;22.506;2022-07-29T03:41:10;21.48;;;8.65;;
62401;SDS011;48440;51.224;22.506;2022-07-29T03:43:38;16.85;;;7.93;;
62401;SDS011;48440;51.224;22.506;2022-07-29T03:46:07;20.30;;;7.90;;
62401;SDS011;48440;51.224;22.506;2022-07-29T03:48:36;22.20;;;8.40;;
62401;SDS011;48440;51.224;22.506;2022-07-29T03:51:06;18.92;;;8.50;;
62401;SDS011;48440;51.224;22.506;2022-07-29T03:53:31;19.35;;;8.07;;
62401;SDS011;48440;51.224;22.506;2022-07-29T03:56:00;16.88;;;7.53;;
62401;SDS011;48440;51.224;22.506;2022-07-29T03:58:28;18.08;;;7.38;;
62401;SDS011;48440;51.224;22.506;2022-07-29T04:00:55;20.70;;;7.60;;
62401;SDS011;48440;51.224;22.506;2022-07-29T04:03:22;15.25;;;7.47;;
62401;SDS011;48440;51.224;22.506;2022-07-29T04:06:01;23.80;;;6.88;;
62401;SDS011;48440;51.224;22.506;2022-07-29T04:08:30;20.55;;;6.78;;
62401;SDS011;48440;51.224;22.506;2022-07-29T04:10:57;16.08;;;6.78;;
62401;SDS011;48440;51.224;22.506;2022-07-29T04:13:23;16.63;;;7.40;;
62401;SDS011;48440;51.224;22.506;2022-07-29T04:15:48;15.52;;;6.85;;
62401;SDS011;48440;51.224;22.506;2022-07-29T04:18:14;15.77;;;7.22;;
62401;SDS011;48440;51.224;22.506;2022-07-29T04:20:39;18.52;;;6.32;;
62401;SDS011;48440;51.224;22.506;2022-07-29T04:23:05;18.50;;;7.65;;
62401;SDS011;48440;51.224;22.506;2022-07-29T04:25:31;17.67;;;5.70;;
62401;SDS011;48440;51.224;22.506;2022-07-29T04:27:56;16.25;;;6.28;;
62401;SDS011;48440;51.224;22.506;2022-07-29T04:30:25;15.20;;;5.85;;
62401;SDS011;48440;51.224;22.506;2022-07-29T04:32:51;16.98;;;6.15;;
62401;SDS011;48440;51.224;22.506;2022-07-29T04:35:17;11.60;;;6.18;;
62401;SDS011;48440;51.224;22.506;2022-07-29T04:37:44;17.23;;;6.20;;
62401;SDS011;48440;51.224;22.506;2022-07-29T04:40:09;11.15;;;7.18;;
62401;SDS011;48440;51.224;22.506;2022-07-29T04:42:35;22.17;;;8.02;;
62401;SDS011;48440;51.224;22.506;2022-07-29T04:45:01;17.92;;;7.65;;
62401;SDS011;48440;51.224;22.506;2022-07-29T04:47:26;15.70;;;7.60;;
62401;SDS011;48440;51.224;22.506;2022-07-29T04:49:52;12.18;;;7.88;;
62401;SDS011;48440;51.224;22.506;2022-07-29T04:52:18;15.15;;;7.88;;
62401;SDS011;48440;51.224;22.506;2022-07-29T04:54:43;20.48;;;7.88;;
62401;SDS011;48440;51.224;22.506;2022-07-29T04:57:09;15.02;;;7.70;;
62401;SDS011;48440;51.224;22.506;2022-07-29T04:59:35;15.40;;;7.63;;
62401;SDS011;48440;51.224;22.506;2022-07-29T05:02:00;19.50;;;7.43;;
62401;SDS011;48440;51.224;22.506;2022-07-29T05:04:26;18.90;;;7.35;;
62401;SDS011;48440;51.224;22.506;2022-07-29T05:06:52;22.17;;;8.00;;
62401;SDS011;48440;51.224;22.506;2022-07-29T05:09:17;21.95;;;7.80;;
62401;SDS011;48440;51.224;22.506;2022-07-29T05:11:43;17.13;;;7.40;;
62401;SDS011;48440;51.224;22.506;2022-07-29T05:14:08;19.50;;;7.03;;
62401;SDS011;48440;51.224;22.506;2022-07-29T05:16:34;17.45;;;7.38;;
62401;SDS011;48440;51.224;22.506;2022-07-29T05:19:00;22.58;;;7.18;;
62401;SDS011;48440;51.224;22.506;2022-07-29T05:21:25;23.27;;;7.00;;
62401;SDS011;48440;51.224;22.506;2022-07-29T05:23:51;21.52;;;7.40;;
62401;SDS011;48440;51.224;22.506;2022-07-29T05:26:17;16.73;;;7.25;;
62401;SDS011;48440;51.224;22.506;2022-07-29T05:28:43;18.52;;;7.88;;
62401;SDS011;48440;51.224;22.506;2022-07-29T05:31:08;15.43;;;6.97;;
62401;SDS011;48440;51.224;22.506;2022-07-29T05:33:34;20.15;;;8.48;;
62401;SDS011;48440;51.224;22.506;2022-07-29T05:36:00;25.75;;;8.43;;
62401;SDS011;48440;51.224;22.506;2022-07-29T05:38:25;21.85;;;7.88;;
62401;SDS011;48440;51.224;22.506;2022-07-29T05:40:51;22.05;;;7.50;;
62401;SDS011;48440;51.224;22.506;2022-07-29T05:43:16;16.98;;;7.68;;
62401;SDS011;48440;51.224;22.506;2022-07-29T05:45:42;20.15;;;7.18;;
62401;SDS011;48440;51.224;22.506;2022-07-29T05:48:08;17.77;;;7.15;;
62401;SDS011;48440;51.224;22.506;2022-07-29T05:50:33;22.38;;;8.18;;
62401;SDS011;48440;51.224;22.506;2022-07-29T05:52:59;20.13;;;6.75;;
62401;SDS011;48440;51.224;22.506;2022-07-29T05:55:24;16.48;;;7.00;;
62401;SDS011;48440;51.224;22.506;2022-07-29T05:57:51;19.05;;;7.13;;
62401;SDS011;48440;51.224;22.506;2022-07-29T06:00:17;20.73;;;7.18;;
62401;SDS011;48440;51.224;22.506;2022-07-29T06:02:43;19.05;;;6.90;;
62401;SDS011;48440;51.224;22.506;2022-07-29T06:05:08;17.88;;;6.80;;
62401;SDS011;48440;51.224;22.506;2022-07-29T06:07:34;20.73;;;7.15;;
62401;SDS011;48440;51.224;22.506;2022-07-29T06:09:59;16.17;;;6.50;;
62401;SDS011;48440;51.224;22.506;2022-07-29T06:12:25;13.52;;;6.10;;
62401;SDS011;48440;51.224;22.506;2022-07-29T06:14:51;18.48;;;6.32;;
62401;SDS011;48440;51.224;22.506;2022-07-29T06:17:17;21.33;;;6.53;;
62401;SDS011;48440;51.224;22.506;2022-07-29T06:19:42;12.45;;;5.35;;
62401;SDS011;48440;51.224;22.506;2022-07-29T06:22:08;11.40;;;5.32;;
62401;SDS011;48440;51.224;22.506;2022-07-29T06:24:34;20.35;;;5.10;;
62401;SDS011;48440;51.224;22.506;2022-07-29T06:27:04;18.60;;;6.47;;
62401;SDS011;48440;51.224;22.506;2022-07-29T06:29:30;14.20;;;5.20;;
62401;SDS011;48440;51.224;22.506;2022-07-29T06:31:56;13.27;;;5.18;;
62401;SDS011;48440;51.224;22.506;2022-07-29T06:34:21;14.23;;;5.18;;
62401;SDS011;48440;51.224;22.506;2022-07-29T06:36:47;20.08;;;5.38;;
62401;SDS011;48440;51.224;22.506;2022-07-29T06:39:14;12.32;;;4.22;;
62401;SDS011;48440;51.224;22.506;2022-07-29T06:41:40;16.25;;;5.15;;
62401;SDS011;48440;51.224;22.506;2022-07-29T06:44:05;9.98;;;4.35;;
62401;SDS011;48440;51.224;22.506;2022-07-29T06:46:31;11.75;;;4.32;;
62401;SDS011;48440;51.224;22.506;2022-07-29T06:48:57;16.80;;;4.40;;
62401;SDS011;48440;51.224;22.506;2022-07-29T06:51:23;12.30;;;4.32;;
62401;SDS011;48440;51.224;22.506;2022-07-29T06:53:49;9.63;;;3.90;;
62401;SDS011;48440;51.224;22.506;2022-07-29T06:56:16;8.05;;;3.60;;
62401;SDS011;48440;51.224;22.506;2022-07-29T06:58:42;11.50;;;3.47;;
62401;SDS011;48440;51.224;22.506;2022-07-29T07:01:08;11.13;;;3.75;;
62401;SDS011;48440;51.224;22.506;2022-07-29T07:03:34;10.45;;;3.70;;
62401;SDS011;48440;51.224;22.506;2022-07-29T07:05:59;11.00;;;3.60;;
62401;SDS011;48440;51.224;22.506;2022-07-29T07:08:25;6.70;;;3.13;;
62401;SDS011;48440;51.224;22.506;2022-07-29T07:10:51;17.77;;;3.30;;
62401;SDS011;48440;51.224;22.506;2022-07-29T07:13:17;8.52;;;3.05;;
62401;SDS011;48440;51.224;22.506;2022-07-29T07:15:43;7.13;;;3.22;;
62401;SDS011;48440;51.224;22.506;2022-07-29T07:18:10;8.38;;;2.92;;
62401;SDS011;48440;51.224;22.506;2022-07-29T07:20:36;9.40;;;3.45;;
62401;SDS011;48440;51.224;22.506;2022-07-29T07:23:02;11.35;;;3.30;;
62401;SDS011;48440;51.224;22.506;2022-07-29T07:25:28;11.13;;;3.63;;
62401;SDS011;48440;51.224;22.506;2022-07-29T07:27:53;10.25;;;3.13;;
62401;SDS011;48440;51.224;22.506;2022-07-29T07:30:19;8.13;;;3.55;;
62401;SDS011;48440;51.224;22.506;2022-07-29T07:32:45;11.57;;;3.45;;
62401;SDS011;48440;51.224;22.506;2022-07-29T07:35:10;5.90;;;2.78;;
62401;SDS011;48440;51.224;22.506;2022-07-29T07:37:36;6.57;;;3.10;;
62401;SDS011;48440;51.224;22.506;2022-07-29T07:40:03;9.43;;;3.00;;
62401;SDS011;48440;51.224;22.506;2022-07-29T07:42:29;6.78;;;2.95;;
62401;SDS011;48440;51.224;22.506;2022-07-29T07:44:54;6.10;;;3.00;;
62401;SDS011;48440;51.224;22.506;2022-07-29T07:47:20;10.73;;;2.88;;
62401;SDS011;48440;51.224;22.506;2022-07-29T07:49:46;9.00;;;2.92;;
62401;SDS011;48440;51.224;22.506;2022-07-29T07:52:12;9.55;;;2.70;;
62401;SDS011;48440;51.224;22.506;2022-07-29T07:54:38;8.05;;;2.85;;
62401;SDS011;48440;51.224;22.506;2022-07-29T07:57:04;6.32;;;2.53;;
62401;SDS011;48440;51.224;22.506;2022-07-29T07:59:29;7.10;;;2.42;;
62401;SDS011;48440;51.224;22.506;2022-07-29T08:01:55;7.00;;;2.40;;
62401;SDS011;48440;51.224;22.506;2022-07-29T08:04:21;8.13;;;2.70;;
62401;SDS011;48440;51.224;22.506;2022-07-29T08:06:47;7.28;;;2.63;;
62401;SDS011;48440;51.224;22.506;2022-07-29T08:09:14;6.03;;;2.65;;
62401;SDS011;48440;51.224;22.506;2022-07-29T08:11:40;9.02;;;2.70;;
62401;SDS011;48440;51.224;22.506;2022-07-29T08:14:06;7.43;;;3.65;;
62401;SDS011;48440;51.224;22.506;2022-07-29T08:16:31;11.65;;;2.60;;
62401;SDS011;48440;51.224;22.506;2022-07-29T08:18:57;7.75;;;2.92;;
62401;SDS011;48440;51.224;22.506;2022-07-29T08:21:23;8.63;;;2.70;;
62401;SDS011;48440;51.224;22.506;2022-07-29T08:23:49;6.72;;;2.80;;
62401;SDS011;48440;51.224;22.506;2022-07-29T08:26:39;5.05;;;2.50;;
62401;SDS011;48440;51.224;22.506;2022-07-29T08:29:05;11.38;;;2.90;;
62401;SDS011;48440;51.224;22.506;2022-07-29T08:31:31;7.90;;;2.58;;
62401;SDS011;48440;51.224;22.506;2022-07-29T08:33:59;6.95;;;2.63;;
62401;SDS011;48440;51.224;22.506;2022-07-29T08:36:25;9.73;;;2.53;;
62401;SDS011;48440;51.224;22.506;2022-07-29T08:38:51;9.02;;;2.67;;
62401;SDS011;48440;51.224;22.506;2022-07-29T08:41:20;5.78;;;2.30;;
62401;SDS011;48440;51.224;22.506;2022-07-29T08:43:47;7.00;;;2.55;;
62401;SDS011;48440;51.224;22.506;2022-07-29T08:46:13;5.05;;;2.50;;
62401;SDS011;48440;51.224;22.506;2022-07-29T08:48:39;5.43;;;2.42;;
62401;SDS011;48440;51.224;22.506;2022-07-29T08:51:06;6.03;;;2.40;;
62401;SDS011;48440;51.224;22.506;2022-07-29T08:53:33;6.53;;;2.45;;
62401;SDS011;48440;51.224;22.506;2022-07-29T08:56:00;5.70;;;2.72;;
62401;SDS011;48440;51.224;22.506;2022-07-29T08:58:26;8.13;;;2.70;;
62401;SDS011;48440;51.224;22.506;2022-07-29T09:00:56;6.13;;;2.55;;
62401;SDS011;48440;51.224;22.506;2022-07-29T09:03:29;10.68;;;2.65;;
62401;SDS011;48440;51.224;22.506;2022-07-29T09:05:56;5.80;;;2.80;;
62401;SDS011;48440;51.224;22.506;2022-07-29T09:08:23;7.50;;;2.53;;
62401;SDS011;48440;51.224;22.506;2022-07-29T09:10:50;9.65;;;2.55;;
62401;SDS011;48440;51.224;22.506;2022-07-29T09:13:16;8.68;;;2.67;;
62401;SDS011;48440;51.224;22.506;2022-07-29T09:15:41;8.15;;;2.92;;
62401;SDS011;48440;51.224;22.506;2022-07-29T09:18:10;7.57;;;2.80;;
62401;SDS011;48440;51.224;22.506;2022-07-29T09:20:35;35.35;;;3.55;;
62401;SDS011;48440;51.224;22.506;2022-07-29T09:23:20;8.88;;;2.60;;
62401;SDS011;48440;51.224;22.506;2022-07-29T09:25:45;10.23;;;2.53;;
62401;SDS011;48440;51.224;22.506;2022-07-29T09:28:14;6.57;;;2.53;;
62401;SDS011;48440;51.224;22.506;2022-07-29T09:30:55;10.65;;;3.17;;
62401;SDS011;48440;51.224;22.506;2022-07-29T09:33:23;7.25;;;2.67;;
62401;SDS011;48440;51.224;22.506;2022-07-29T09:36:00;6.00;;;2.72;;
62401;SDS011;48440;51.224;22.506;2022-07-29T09:38:29;7.63;;;2.40;;
62401;SDS011;48440;51.224;22.506;2022-07-29T09:40:59;11.18;;;2.80;;
62401;SDS011;48440;51.224;22.506;2022-07-29T09:43:25;8.88;;;3.05;;
62401;SDS011;48440;51.224;22.506;2022-07-29T09:45:51;10.45;;;2.83;;
62401;SDS011;48440;51.224;22.506;2022-07-29T09:48:18;15.20;;;3.22;;
62401;SDS011;48440;51.224;22.506;2022-07-29T09:50:45;7.43;;;2.97;;
62401;SDS011;48440;51.224;22.506;2022-07-29T09:53:12;6.57;;;2.70;;
62401;SDS011;48440;51.224;22.506;2022-07-29T09:55:54;10.27;;;3.03;;
62401;SDS011;48440;51.224;22.506;2022-07-29T09:58:20;9.02;;;3.00;;
62401;SDS011;48440;51.224;22.506;2022-07-29T10:00:47;9.52;;;2.97;;
62401;SDS011;48440;51.224;22.506;2022-07-29T10:03:14;5.85;;;2.78;;
62401;SDS011;48440;51.224;22.506;2022-07-29T10:05:41;7.30;;;2.85;;
62401;SDS011;48440;51.224;22.506;2022-07-29T10:08:07;6.47;;;2.80;;
62401;SDS011;48440;51.224;22.506;2022-07-29T10:10:35;7.63;;;2.80;;
62401;SDS011;48440;51.224;22.506;2022-07-29T10:13:04;5.68;;;2.67;;
62401;SDS011;48440;51.224;22.506;2022-07-29T10:15:31;6.00;;;2.80;;
62401;SDS011;48440;51.224;22.506;2022-07-29T10:18:04;9.50;;;3.30;;
62401;SDS011;48440;51.224;22.506;2022-07-29T10:20:30;8.20;;;2.70;;
62401;SDS011;48440;51.224;22.506;2022-07-29T10:22:56;6.13;;;2.75;;
62401;SDS011;48440;51.224;22.506;2022-07-29T10:25:22;8.15;;;3.00;;
62401;SDS011;48440;51.224;22.506;2022-07-29T10:27:49;7.68;;;2.88;;
62401;SDS011;48440;51.224;22.506;2022-07-29T10:30:19;5.63;;;2.95;;
62401;SDS011;48440;51.224;22.506;2022-07-29T10:35:46;7.13;;;3.10;;
62401;SDS011;48440;51.224;22.506;2022-07-29T10:44:04;7.60;;;3.10;;
62401;SDS011;48440;51.224;22.506;2022-07-29T10:46:37;5.38;;;3.00;;
62401;SDS011;48440;51.224;22.506;2022-07-29T10:49:04;8.07;;;3.22;;
62401;SDS011;48440;51.224;22.506;2022-07-29T11:05:02;10.90;;;3.05;;
62401;SDS011;48440;51.224;22.506;2022-07-29T11:07:30;9.07;;;3.10;;
62401;SDS011;48440;51.224;22.506;2022-07-29T11:15:18;10.65;;;2.92;;
62401;SDS011;48440;51.224;22.506;2022-07-29T11:20:30;7.78;;;3.20;;
62401;SDS011;48440;51.224;22.506;2022-07-29T11:22:59;7.85;;;3.20;;
62401;SDS011;48440;51.224;22.506;2022-07-29T11:25:25;6.38;;;3.30;;
62401;SDS011;48440;51.224;22.506;2022-07-29T11:27:52;5.93;;;3.10;;
62401;SDS011;48440;51.224;22.506;2022-07-29T11:30:19;6.70;;;3.33;;
62401;SDS011;48440;51.224;22.506;2022-07-29T11:32:45;6.72;;;2.75;;
62401;SDS011;48440;51.224;22.506;2022-07-29T11:35:13;8.93;;;3.10;;
62401;SDS011;48440;51.224;22.506;2022-07-29T11:37:47;7.75;;;3.38;;
62401;SDS011;48440;51.224;22.506;2022-07-29T11:49:21;5.78;;;3.20;;
62401;SDS011;48440;51.224;22.506;2022-07-29T11:51:54;4.93;;;3.30;;
62401;SDS011;48440;51.224;22.506;2022-07-29T11:54:25;11.63;;;3.15;;
62401;SDS011;48440;51.224;22.506;2022-07-29T11:56:52;4.90;;;2.80;;
62401;SDS011;48440;51.224;22.506;2022-07-29T11:59:18;7.57;;;3.67;;
62401;SDS011;48440;51.224;22.506;2022-07-29T12:01:54;9.30;;;3.55;;
62401;SDS011;48440;51.224;22.506;2022-07-29T12:04:23;5.93;;;3.25;;
62401;SDS011;48440;51.224;22.506;2022-07-29T12:06:53;9.10;;;3.97;;
62401;SDS011;48440;51.224;22.506;2022-07-29T12:09:19;6.28;;;3.25;;
62401;SDS011;48440;51.224;22.506;2022-07-29T12:11:46;5.85;;;3.17;;
62401;SDS011;48440;51.224;22.506;2022-07-29T12:16:54;7.43;;;3.20;;
62401;SDS011;48440;51.224;22.506;2022-07-29T12:19:20;5.13;;;3.42;;
62401;SDS011;48440;51.224;22.506;2022-07-29T12:21:53;6.95;;;3.58;;
62401;SDS011;48440;51.224;22.506;2022-07-29T12:24:20;8.95;;;3.20;;
62401;SDS011;48440;51.224;22.506;2022-07-29T12:26:56;8.80;;;3.92;;
62401;SDS011;48440;51.224;22.506;2022-07-29T12:29:23;8.57;;;3.92;;
62401;SDS011;48440;51.224;22.506;2022-07-29T12:31:52;7.40;;;3.53;;
62401;SDS011;48440;51.224;22.506;2022-07-29T12:34:22;9.50;;;4.00;;
62401;SDS011;48440;51.224;22.506;2022-07-29T12:36:49;7.15;;;3.90;;
62401;SDS011;48440;51.224;22.506;2022-07-29T12:39:15;7.78;;;3.88;;
62401;SDS011;48440;51.224;22.506;2022-07-29T12:41:42;10.82;;;4.40;;
62401;SDS011;48440;51.224;22.506;2022-07-29T12:44:08;10.40;;;3.72;;
62401;SDS011;48440;51.224;22.506;2022-07-29T12:46:34;5.18;;;3.58;;
62401;SDS011;48440;51.224;22.506;2022-07-29T12:49:00;6.90;;;3.47;;
62401;SDS011;48440;51.224;22.506;2022-07-29T12:51:29;12.25;;;4.18;;
62401;SDS011;48440;51.224;22.506;2022-07-29T12:56:38;9.23;;;3.92;;
62401;SDS011;48440;51.224;22.506;2022-07-29T12:59:15;9.23;;;4.03;;
62401;SDS011;48440;51.224;22.506;2022-07-29T13:01:42;10.05;;;4.22;;
62401;SDS011;48440;51.224;22.506;2022-07-29T13:04:09;8.85;;;4.38;;
62401;SDS011;48440;51.224;22.506;2022-07-29T13:11:39;10.95;;;3.97;;
62401;SDS011;48440;51.224;22.506;2022-07-29T13:14:08;7.32;;;3.80;;
62401;SDS011;48440;51.224;22.506;2022-07-29T13:16:35;8.68;;;4.03;;
62401;SDS011;48440;51.224;22.506;2022-07-29T13:19:03;8.68;;;4.45;;
62401;SDS011;48440;51.224;22.506;2022-07-29T13:21:33;6.35;;;3.95;;
62401;SDS011;48440;51.224;22.506;2022-07-29T13:23:59;9.68;;;4.28;;
62401;SDS011;48440;51.224;22.506;2022-07-29T13:26:24;8.88;;;4.35;;
62401;SDS011;48440;51.224;22.506;2022-07-29T13:28:50;9.75;;;4.57;;
62401;SDS011;48440;51.224;22.506;2022-07-29T13:31:15;9.05;;;4.22;;
62401;SDS011;48440;51.224;22.506;2022-07-29T13:33:41;11.25;;;4.40;;
62401;SDS011;48440;51.224;22.506;2022-07-29T13:36:06;6.90;;;3.95;;
62401;SDS011;48440;51.224;22.506;2022-07-29T13:38:32;9.55;;;4.40;;
62401;SDS011;48440;51.224;22.506;2022-07-29T13:40:58;8.70;;;4.03;;
62401;SDS011;48440;51.224;22.506;2022-07-29T13:43:23;8.25;;;4.30;;
62401;SDS011;48440;51.224;22.506;2022-07-29T13:45:49;6.35;;;4.50;;
62401;SDS011;48440;51.224;22.506;2022-07-29T13:48:14;11.13;;;4.05;;
62401;SDS011;48440;51.224;22.506;2022-07-29T13:50:40;4.97;;;3.97;;
62401;SDS011;48440;51.224;22.506;2022-07-29T13:53:05;8.43;;;4.43;;
62401;SDS011;48440;51.224;22.506;2022-07-29T13:55:34;8.45;;;4.53;;
62401;SDS011;48440;51.224;22.506;2022-07-29T13:57:59;9.02;;;4.22;;
62401;SDS011;48440;51.224;22.506;2022-07-29T14:00:25;9.25;;;4.50;;
62401;SDS011;48440;51.224;22.506;2022-07-29T14:02:51;6.82;;;4.30;;
62401;SDS011;48440;51.224;22.506;2022-07-29T14:05:17;11.85;;;4.20;;
62401;SDS011;48440;51.224;22.506;2022-07-29T14:07:42;8.70;;;4.38;;
62401;SDS011;48440;51.224;22.506;2022-07-29T14:10:08;8.80;;;4.63;;
62401;SDS011;48440;51.224;22.506;2022-07-29T14:12:34;7.90;;;4.70;;
62401;SDS011;48440;51.224;22.506;2022-07-29T14:14:59;8.80;;;4.45;;
62401;SDS011;48440;51.224;22.506;2022-07-29T14:17:25;12.65;;;4.57;;
62401;SDS011;48440;51.224;22.506;2022-07-29T14:19:50;8.80;;;4.60;;
62401;SDS011;48440;51.224;22.506;2022-07-29T14:22:16;13.07;;;4.70;;
62401;SDS011;48440;51.224;22.506;2022-07-29T14:24:43;9.75;;;4.18;;
62401;SDS011;48440;51.224;22.506;2022-07-29T14:27:09;8.73;;;4.50;;
62401;SDS011;48440;51.224;22.506;2022-07-29T14:29:35;15.30;;;4.63;;
62401;SDS011;48440;51.224;22.506;2022-07-29T14:32:01;6.32;;;4.20;;
62401;SDS011;48440;51.224;22.506;2022-07-29T14:34:26;8.35;;;4.03;;
62401;SDS011;48440;51.224;22.506;2022-07-29T14:36:52;10.50;;;4.18;;
62401;SDS011;48440;51.224;22.506;2022-07-29T14:39:20;9.07;;;4.50;;
62401;SDS011;48440;51.224;22.506;2022-07-29T14:41:47;6.43;;;3.85;;
62401;SDS011;48440;51.224;22.506;2022-07-29T14:44:13;6.97;;;3.88;;
62401;SDS011;48440;51.224;22.506;2022-07-29T14:46:39;8.27;;;4.22;;
62401;SDS011;48440;51.224;22.506;2022-07-29T14:49:04;7.50;;;3.85;;
62401;SDS011;48440;51.224;22.506;2022-07-29T14:51:30;8.25;;;4.30;;
62401;SDS011;48440;51.224;22.506;2022-07-29T14:53:56;6.03;;;4.20;;
62401;SDS011;48440;51.224;22.506;2022-07-29T14:56:22;8.60;;;4.68;;
62401;SDS011;48440;51.224;22.506;2022-07-29T14:58:48;8.40;;;4.40;;
62401;SDS011;48440;51.224;22.506;2022-07-29T15:01:14;5.53;;;3.85;;
62401;SDS011;48440;51.224;22.506;2022-07-29T15:03:39;8.20;;;4.57;;
62401;SDS011;48440;51.224;22.506;2022-07-29T15:06:05;9.07;;;4.43;;
62401;SDS011;48440;51.224;22.506;2022-07-29T15:08:31;8.55;;;4.40;;
62401;SDS011;48440;51.224;22.506;2022-07-29T15:10:56;11.55;;;4.50;;
62401;SDS011;48440;51.224;22.506;2022-07-29T15:13:25;9.38;;;4.50;;
62401;SDS011;48440;51.224;22.506;2022-07-29T15:15:51;12.32;;;4.60;;
62401;SDS011;48440;51.224;22.506;2022-07-29T15:18:17;7.95;;;4.10;;
62401;SDS011;48440;51.224;22.506;2022-07-29T15:20:42;11.93;;;5.05;;
62401;SDS011;48440;51.224;22.506;2022-07-29T15:23:10;10.50;;;4.70;;
62401;SDS011;48440;51.224;22.506;2022-07-29T15:25:37;11.27;;;4.60;;